sensor_id;sensor_type;location;lat;lon;timestamp;P1;durP1;ratioP1;P2;durP2;ratioP2
43554;SDS011;35085;40.398;-3.702;2024-02-14T00:01:20;21.00;;;6.32;;
43554;SDS011;35085;40.398;-3.702;2024-02-14T00:11:26;19.55;;;7.90;;
43554;SDS011;35085;40.398;-3.702;2024-02-14T00:21:34;19.42;;;9.18;;
43554;SDS011;35085;40.398;-3.702;2024-02-14T00:31:40;29.20;;;9.77;;
43554;SDS011;35085;40.398;-3.702;2024-02-14T00:41:49;17.83;;;6.50;;
43554;SDS011;35085;40.398;-3.702;2024-02-14T00:51:57;17.02;;;7.68;;
43554;SDS011;35085;40.398;-3.702;2024-02-14T01:02:05;19.10;;;6.93;;
43554;SDS011;35085;40.398;-3.702;2024-02-14T01:12:11;12.88;;;5.60;;
43554;SDS011;35085;40.398;-3.702;2024-02-14T01:22:19;14.40;;;5.00;;
43554;SDS011;35085;40.398;-3.702;2024-02-14T01:32:26;8.52;;;4.43;;
43554;SDS011;35085;40.398;-3.702;2024-02-14T01:42:33;8.55;;;4.22;;
43554;SDS011;35085;40.398;-3.702;2024-02-14T01:52:41;8.80;;;4.13;;
43554;SDS011;35085;40.398;-3.702;2024-02-14T02:02:50;9.07;;;3.97;;
43554;SDS011;35085;40.398;-3.702;2024-02-14T02:12:58;8.35;;;3.80;;
43554;SDS011;35085;40.398;-3.702;2024-02-14T02:23:09;6.40;;;3.28;;
43554;SDS011;35085;40.398;-3.702;2024-02-14T02:33:14;5.45;;;3.10;;
43554;SDS011;35085;40.398;-3.702;2024-02-14T02:43:23;8.45;;;3.97;;
43554;SDS011;35085;40.398;-3.702;2024-02-14T02:53:31;5.95;;;3.70;;
43554;SDS011;35085;40.398;-3.702;2024-02-14T03:03:32;5.95;;;3.75;;
43554;SDS011;35085;40.398;-3.702;2024-02-14T03:13:40;6.18;;;3.80;;
43554;SDS011;35085;40.398;-3.702;2024-02-14T03:23:48;7.63;;;4.15;;
43554;SDS011;35085;40.398;-3.702;2024-02-14T03:33:56;8.07;;;4.22;;
43554;SDS011;35085;40.398;-3.702;2024-02-14T03:44:04;9.15;;;5.13;;
43554;SDS011;35085;40.398;-3.702;2024-02-14T03:54:10;10.20;;;4.93;;
43554;SDS011;35085;40.398;-3.702;2024-02-14T04:04:18;9.55;;;5.30;;
43554;SDS011;35085;40.398;-3.702;2024-02-14T04:14:24;12.05;;;5.40;;
43554;SDS011;35085;40.398;-3.702;2024-02-14T04:24:35;10.95;;;4.85;;
43554;SDS011;35085;40.398;-3.702;2024-02-14T04:34:38;10.50;;;5.25;;
43554;SDS011;35085;40.398;-3.702;2024-02-14T04:44:48;12.80;;;6.60;;
43554;SDS011;35085;40.398;-3.702;2024-02-14T04:54:56;12.48;;;5.75;;
43554;SDS011;35085;40.398;-3.702;2024-02-14T05:05:04;13.77;;;6.32;;
43554;SDS011;35085;40.398;-3.702;2024-02-14T05:15:12;14.07;;;6.65;;
43554;SDS011;35085;40.398;-3.702;2024-02-14T05:25:20;13.43;;;6.35;;
43554;SDS011;35085;40.398;-3.702;2024-02-14T05:35:28;18.75;;;7.00;;
43554;SDS011;35085;40.398;-3.702;2024-02-14T05:45:36;13.23;;;6.53;;
43554;SDS011;35085;40.398;-3.702;2024-02-14T05:55:42;18.75;;;6.85;;
43554;SDS011;35085;40.398;-3.702;2024-02-14T06:05:50;19.67;;;7.72;;
43554;SDS011;35085;40.398;-3.702;2024-02-14T06:15:58;15.73;;;6.32;;
43554;SDS011;35085;40.398;-3.702;2024-02-14T06:25:59;12.85;;;5.78;;
43554;SDS011;35085;40.398;-3.702;2024-02-14T06:36:07;14.50;;;6.55;;
43554;SDS011;35085;40.398;-3.702;2024-02-14T06:56:18;13.85;;;6.63;;
43554;SDS011;35085;40.398;-3.702;2024-02-14T07:06:20;16.48;;;7.47;;
43554;SDS011;35085;40.398;-3.702;2024-02-14T07:16:28;15.50;;;7.50;;
43554;SDS011;35085;40.398;-3.702;2024-02-14T07:26:36;17.67;;;7.75;;
43554;SDS011;35085;40.398;-3.702;2024-02-14T07:36:44;19.48;;;7.35;;
43554;SDS011;35085;40.398;-3.702;2024-02-14T07:46:52;14.65;;;7.97;;
43554;SDS011;35085;40.398;-3.702;2024-02-14T07:56:53;19.05;;;7.68;;
43554;SDS011;35085;40.398;-3.702;2024-02-14T08:07:01;22.75;;;8.05;;
43554;SDS011;35085;40.398;-3.702;2024-02-14T08:27:12;14.35;;;6.70;;
43554;SDS011;35085;40.398;-3.702;2024-02-14T08:37:22;19.77;;;7.57;;
43554;SDS011;35085;40.398;-3.702;2024-02-14T08:47:31;17.52;;;7.68;;
43554;SDS011;35085;40.398;-3.702;2024-02-14T08:57:41;16.90;;;7.95;;
43554;SDS011;35085;40.398;-3.702;2024-02-14T09:07:51;18.90;;;6.95;;
43554;SDS011;35085;40.398;-3.702;2024-02-14T09:18:03;12.38;;;5.72;;
43554;SDS011;35085;40.398;-3.702;2024-02-14T09:28:11;8.00;;;4.25;;
43554;SDS011;35085;40.398;-3.702;2024-02-14T09:38:18;10.10;;;4.75;;
43554;SDS011;35085;40.398;-3.702;2024-02-14T09:58:31;8.77;;;4.90;;
43554;SDS011;35085;40.398;-3.702;2024-02-14T10:08:40;13.07;;;5.50;;
43554;SDS011;35085;40.398;-3.702;2024-02-14T10:18:50;13.15;;;4.70;;
43554;SDS011;35085;40.398;-3.702;2024-02-14T10:28:53;9.75;;;4.47;;
43554;SDS011;35085;40.398;-3.702;2024-02-14T10:39:05;10.25;;;4.82;;
43554;SDS011;35085;40.398;-3.702;2024-02-14T10:49:14;10.68;;;4.13;;
43554;SDS011;35085;40.398;-3.702;2024-02-14T10:59:18;15.27;;;5.40;;
43554;SDS011;35085;40.398;-3.702;2024-02-14T11:09:35;11.50;;;4.10;;
43554;SDS011;35085;40.398;-3.702;2024-02-14T11:19:46;7.05;;;3.95;;
43554;SDS011;35085;40.398;-3.702;2024-02-14T11:29:58;5.85;;;2.80;;
43554;SDS011;35085;40.398;-3.702;2024-02-14T11:50:17;4.47;;;1.97;;
43554;SDS011;35085;40.398;-3.702;2024-02-14T12:00:27;5.50;;;2.25;;
43554;SDS011;35085;40.398;-3.702;2024-02-14T12:10:37;6.03;;;2.45;;
43554;SDS011;35085;40.398;-3.702;2024-02-14T12:20:45;5.05;;;1.70;;
43554;SDS011;35085;40.398;-3.702;2024-02-14T12:30:55;3.38;;;1.77;;
43554;SDS011;35085;40.398;-3.702;2024-02-14T12:41:03;3.28;;;1.90;;
43554;SDS011;35085;40.398;-3.702;2024-02-14T12:51:12;10.85;;;2.40;;
43554;SDS011;35085;40.398;-3.702;2024-02-14T13:01:17;4.57;;;2.15;;
43554;SDS011;35085;40.398;-3.702;2024-02-14T13:11:26;11.43;;;2.53;;
43554;SDS011;35085;40.398;-3.702;2024-02-14T13:31:45;4.97;;;2.50;;
43554;SDS011;35085;40.398;-3.702;2024-02-14T13:41:54;4.63;;;2.38;;
43554;SDS011;35085;40.398;-3.702;2024-02-14T13:52:06;7.95;;;2.67;;
43554;SDS011;35085;40.398;-3.702;2024-02-14T14:02:16;6.85;;;2.72;;
43554;SDS011;35085;40.398;-3.702;2024-02-14T14:12:24;5.17;;;2.83;;
43554;SDS011;35085;40.398;-3.702;2024-02-14T14:22:34;7.55;;;2.95;;
43554;SDS011;35085;40.398;-3.702;2024-02-14T14:32:45;8.20;;;3.47;;
43554;SDS011;35085;40.398;-3.702;2024-02-14T14:42:55;5.72;;;2.97;;
43554;SDS011;35085;40.398;-3.702;2024-02-14T14:53:05;16.65;;;5.80;;
43554;SDS011;35085;40.398;-3.702;2024-02-14T15:03:15;6.30;;;2.55;;
43554;SDS011;35085;40.398;-3.702;2024-02-14T15:13:25;4.65;;;2.50;;
43554;SDS011;35085;40.398;-3.702;2024-02-14T15:23:31;3.92;;;2.03;;
43554;SDS011;35085;40.398;-3.702;2024-02-14T15:33:41;7.22;;;1.88;;
43554;SDS011;35085;40.398;-3.702;2024-02-14T15:43:51;6.00;;;2.08;;
43554;SDS011;35085;40.398;-3.702;2024-02-14T15:54:01;9.77;;;3.13;;
43554;SDS011;35085;40.398;-3.702;2024-02-14T16:04:09;5.30;;;2.15;;
43554;SDS011;35085;40.398;-3.702;2024-02-14T16:14:20;5.13;;;1.73;;
43554;SDS011;35085;40.398;-3.702;2024-02-14T16:24:30;4.68;;;2.33;;
43554;SDS011;35085;40.398;-3.702;2024-02-14T16:34:40;4.95;;;1.90;;
43554;SDS011;35085;40.398;-3.702;2024-02-14T16:44:49;4.13;;;1.60;;
43554;SDS011;35085;40.398;-3.702;2024-02-14T16:55:01;6.13;;;2.35;;
43554;SDS011;35085;40.398;-3.702;2024-02-14T17:25:23;5.18;;;1.70;;
43554;SDS011;35085;40.398;-3.702;2024-02-14T17:35:33;4.03;;;1.50;;
43554;SDS011;35085;40.398;-3.702;2024-02-14T17:45:44;5.68;;;2.25;;
43554;SDS011;35085;40.398;-3.702;2024-02-14T17:55:55;4.53;;;1.90;;
43554;SDS011;35085;40.398;-3.702;2024-02-14T18:06:03;6.03;;;2.70;;
43554;SDS011;35085;40.398;-3.702;2024-02-14T18:16:11;7.53;;;2.70;;
43554;SDS011;35085;40.398;-3.702;2024-02-14T18:26:22;7.80;;;4.68;;
43554;SDS011;35085;40.398;-3.702;2024-02-14T18:36:31;7.47;;;3.15;;
43554;SDS011;35085;40.398;-3.702;2024-02-14T18:46:32;5.20;;;2.92;;
43554;SDS011;35085;40.398;-3.702;2024-02-14T18:56:40;8.98;;;3.67;;
43554;SDS011;35085;40.398;-3.702;2024-02-14T19:06:48;9.90;;;3.22;;
43554;SDS011;35085;40.398;-3.702;2024-02-14T19:16:57;6.85;;;3.47;;
43554;SDS011;35085;40.398;-3.702;2024-02-14T19:27:04;11.38;;;4.05;;
43554;SDS011;35085;40.398;-3.702;2024-02-14T19:37:12;8.95;;;4.18;;
43554;SDS011;35085;40.398;-3.702;2024-02-14T19:47:20;11.98;;;5.75;;
43554;SDS011;35085;40.398;-3.702;2024-02-14T19:57:29;11.13;;;5.07;;
43554;SDS011;35085;40.398;-3.702;2024-02-14T20:07:34;8.50;;;4.30;;
43554;SDS011;35085;40.398;-3.702;2024-02-14T20:17:42;13.38;;;5.72;;
43554;SDS011;35085;40.398;-3.702;2024-02-14T20:27:49;32.78;;;14.93;;
43554;SDS011;35085;40.398;-3.702;2024-02-14T20:37:57;11.63;;;5.30;;
43554;SDS011;35085;40.398;-3.702;2024-02-14T20:48:05;7.85;;;3.63;;
43554;SDS011;35085;40.398;-3.702;2024-02-14T20:58:14;9.67;;;4.53;;
43554;SDS011;35085;40.398;-3.702;2024-02-14T21:08:22;8.15;;;4.35;;
43554;SDS011;35085;40.398;-3.702;2024-02-14T21:18:30;12.60;;;4.53;;
43554;SDS011;35085;40.398;-3.702;2024-02-14T21:28:38;9.45;;;5.22;;
43554;SDS011;35085;40.398;-3.702;2024-02-14T21:38:46;9.48;;;5.47;;
43554;SDS011;35085;40.398;-3.702;2024-02-14T21:48:57;9.85;;;5.05;;
43554;SDS011;35085;40.398;-3.702;2024-02-14T21:59:06;9.13;;;5.20;;
43554;SDS011;35085;40.398;-3.702;2024-02-14T22:09:14;7.60;;;4.70;;
43554;SDS011;35085;40.398;-3.702;2024-02-14T22:19:21;8.40;;;3.97;;
43554;SDS011;35085;40.398;-3.702;2024-02-14T22:29:29;12.18;;;5.03;;
43554;SDS011;35085;40.398;-3.702;2024-02-14T22:39:37;11.77;;;5.78;;
43554;SDS011;35085;40.398;-3.702;2024-02-14T22:49:45;11.27;;;6.00;;
43554;SDS011;35085;40.398;-3.702;2024-02-14T22:59:54;9.73;;;5.22;;
43554;SDS011;35085;40.398;-3.702;2024-02-14T23:09:55;8.60;;;4.22;;
43554;SDS011;35085;40.398;-3.702;2024-02-14T23:20:03;9.00;;;4.20;;
43554;SDS011;35085;40.398;-3.702;2024-02-14T23:30:12;11.93;;;4.93;;
43554;SDS011;35085;40.398;-3.702;2024-02-14T23:40:20;7.63;;;4.15;;
43554;SDS011;35085;40.398;-3.702;2024-02-14T23:50:28;8.88;;;4.45;;
